Am Ghent — A8ZA8 — position and weather

sailwx.info

Track history (hours):
 
Tides and Currents Weather Stations Pressure Air Temp Water Temp Dewpoint Dewpoint Depression Visibility Wind Speed Wind Dir Waves Ship Positions

Am Ghent

Last reported at 2017-Dec-11 14:43 UTC. Time now 2017-Dec-14 17:05 UTC.
Position N 39°01' W 076°23'.

Length 230 m; draft 14 m.

Type: Cargo ship. MMSI: 636015170.

Date/timePositionNaut miles runAvg speedWind from/ knotsBaromVisibWave heightAir tempDewpointWater temp
2017-Dec-11 14:43N 39°01' W 076°23'6 8.1
2017-Dec-11 13:59N 39°07' W 076°24'3 6.2
2017-Dec-11 13:30N 39°10' W 076°26'4 8.2
2017-Dec-11 13:00N 39°12' W 076°30'3 6.2
2017-Dec-11 12:30N 39°13' W 076°34'1 0.9
2017-Dec-11 11:56N 39°13' W 076°35'0 0.0
2017-Dec-11 11:26N 39°13' W 076°35'0 0.0
2017-Dec-11 10:23N 39°13' W 076°35'0 0.0
2017-Dec-11 09:41N 39°13' W 076°35'0 0.0
2017-Dec-11 09:11N 39°13' W 076°35'0 0.0
2017-Dec-11 08:56N 39°13' W 076°35'0 0.0
2017-Dec-11 08:23N 39°13' W 076°35'0 0.0
2017-Dec-11 06:59N 39°13' W 076°35'0 0.0
2017-Dec-11 06:05N 39°13' W 076°35'0 0.0
2017-Dec-11 05:59N 39°13' W 076°35'0 0.0
2017-Dec-11 05:14N 39°13' W 076°35'0 0.0
2017-Dec-10 11:41N 39°13' W 076°35'0 0.0
2017-Dec-10 10:29N 39°13' W 076°35'0 0.0
2017-Dec-10 09:59N 39°13' W 076°35'0 0.0
2017-Dec-10 09:29N 39°13' W 076°35'0 0.0
2017-Dec-10 08:56N 39°13' W 076°35'0 0.0
2017-Dec-10 08:14N 39°13' W 076°35'0 0.0
2017-Dec-10 07:59N 39°13' W 076°35'0 0.0
2017-Dec-10 07:29N 39°13' W 076°35'0 0.0
2017-Dec-10 06:59N 39°13' W 076°35'0 0.0
2017-Dec-10 06:29N 39°13' W 076°35'0 0.0
2017-Dec-10 05:59N 39°13' W 076°35'0 0.0
2017-Dec-10 05:29N 39°13' W 076°35'0 0.0
2017-Dec-10 04:59N 39°13' W 076°35'0 0.0
2017-Dec-10 04:26N 39°13' W 076°35'0 0.0
2017-Dec-10 03:56N 39°13' W 076°35'0 0.0
2017-Dec-10 03:14N 39°13' W 076°35'0 0.0
2017-Dec-10 02:56N 39°13' W 076°35'0 0.0
2017-Dec-10 02:14N 39°13' W 076°35'0 0.0
2017-Dec-10 01:59N 39°13' W 076°35'0 0.0
2017-Dec-10 01:23N 39°13' W 076°35'0 0.0
2017-Dec-10 00:53N 39°13' W 076°35'0 0.0
2017-Dec-10 00:29N 39°13' W 076°35'0 0.0
2017-Dec-09 18:47N 39°13' W 076°35'0 0.0
2017-Dec-09 17:38N 39°13' W 076°35'0 0.0
2017-Dec-09 17:23N 39°13' W 076°35'0 0.0
2017-Dec-09 16:59N 39°13' W 076°35'0 0.0
2017-Dec-09 16:29N 39°13' W 076°35'0 0.0
2017-Dec-09 15:56N 39°13' W 076°35'0 0.0
2017-Dec-09 15:08N 39°13' W 076°35'0 0.0
2017-Dec-09 14:50N 39°13' W 076°35'0 0.0
2017-Dec-09 14:29N 39°13' W 076°35'0 0.0
2017-Dec-09 13:56N 39°13' W 076°35'0 0.0
2017-Dec-09 13:20N 39°13' W 076°35'0 0.0
2017-Dec-09 12:47N 39°13' W 076°35'0 0.0
2017-Dec-09 12:05N 39°13' W 076°35'0 0.0
2017-Dec-09 11:50N 39°13' W 076°35'0 0.0
2017-Dec-09 11:26N 39°13' W 076°35'0 0.0
2017-Dec-09 10:56N 39°13' W 076°35'0 0.0
2017-Dec-09 10:26N 39°13' W 076°35'0 0.0
2017-Dec-09 09:59N 39°13' W 076°35'0 0.0
2017-Dec-09 09:26N 39°13' W 076°35'0 0.0
2017-Dec-09 08:50N 39°13' W 076°35'0 0.0
2017-Dec-09 08:20N 39°13' W 076°35'0 0.0
2017-Dec-09 07:50N 39°13' W 076°35'0 0.0
2017-Dec-09 07:29N 39°13' W 076°35'0 0.0
2017-Dec-09 06:59N 39°13' W 076°35'0 0.0
2017-Dec-09 06:20N 39°13' W 076°35'0 0.0
2017-Dec-09 05:56N 39°13' W 076°35'0 0.0
2017-Dec-09 05:20N 39°13' W 076°35'0 0.0
2017-Dec-09 04:56N 39°13' W 076°35'0 0.0
2017-Dec-09 04:14N 39°13' W 076°35'0 0.0
2017-Dec-09 03:50N 39°13' W 076°35'0 0.0
2017-Dec-09 03:26N 39°13' W 076°35'0 0.2
2017-Dec-09 03:00N 39°13' W 076°35'2 3.9
2017-Dec-09 02:30N 39°13' W 076°32'4 8.4
2017-Dec-09 02:00N 39°11' W 076°27'711.7
2017-Dec-09 01:24N 39°05' W 076°24'  
2017-Dec-06 03:00N 37°06' W 072°54'13910.7 180 / 341019.010.8 16.012.4
2017-Dec-05 14:00N 37°18' W 070°00'14410.3 150 / 141031.010.8 17.015.3
2017-Dec-05 00:00N 37°36' W 067°00'3812.8 340 / 221028.010.8 14.012.2
2017-Dec-04 21:00N 37°42' W 066°12'7210.3 340 / 291025.010.8 17.013.5
2017-Dec-04 14:00N 37°54' W 064°42'51211.1 350 / 321020.010.8 16.014.3
2017-Dec-02 16:00N 39°42' W 054°00'25611.6 120 / 101015.010.8 17.011.5
2017-Dec-01 18:00N 40°24' W 048°30'   330 / 281014.0 5.4 12.010.1
Track history (hours):
 
Tides and Currents Weather Stations Pressure Air Temp Water Temp Dewpoint Dewpoint Depression Visibility Wind Speed Wind Dir Waves Ship Positions

Am Ghent

Last reported at 2017-Dec-11 14:43 UTC. Time now 2017-Dec-14 17:05 UTC.
Position N 39°01' W 076°23'.

Length 230 m; draft 14 m.

Type: Cargo ship. MMSI: 636015170.

Date/timePositionNaut miles runAvg speedWind from/ knotsBaromVisibWave heightAir tempDewpointWater temp
2017-Dec-11 14:43N 39°01' W 076°23'6 8.1
2017-Dec-11 13:59N 39°07' W 076°24'3 6.2
2017-Dec-11 13:30N 39°10' W 076°26'4 8.2
2017-Dec-11 13:00N 39°12' W 076°30'3 6.2
2017-Dec-11 12:30N 39°13' W 076°34'1 0.9
2017-Dec-11 11:56N 39°13' W 076°35'0 0.0
2017-Dec-11 11:26N 39°13' W 076°35'0 0.0
2017-Dec-11 10:23N 39°13' W 076°35'0 0.0
2017-Dec-11 09:41N 39°13' W 076°35'0 0.0
2017-Dec-11 09:11N 39°13' W 076°35'0 0.0
2017-Dec-11 08:56N 39°13' W 076°35'0 0.0
2017-Dec-11 08:23N 39°13' W 076°35'0 0.0
2017-Dec-11 06:59N 39°13' W 076°35'0 0.0
2017-Dec-11 06:05N 39°13' W 076°35'0 0.0
2017-Dec-11 05:59N 39°13' W 076°35'0 0.0
2017-Dec-11 05:14N 39°13' W 076°35'0 0.0
2017-Dec-10 11:41N 39°13' W 076°35'0 0.0
2017-Dec-10 10:29N 39°13' W 076°35'0 0.0
2017-Dec-10 09:59N 39°13' W 076°35'0 0.0
2017-Dec-10 09:29N 39°13' W 076°35'0 0.0
2017-Dec-10 08:56N 39°13' W 076°35'0 0.0
2017-Dec-10 08:14N 39°13' W 076°35'0 0.0
2017-Dec-10 07:59N 39°13' W 076°35'0 0.0
2017-Dec-10 07:29N 39°13' W 076°35'0 0.0
2017-Dec-10 06:59N 39°13' W 076°35'0 0.0
2017-Dec-10 06:29N 39°13' W 076°35'0 0.0
2017-Dec-10 05:59N 39°13' W 076°35'0 0.0
2017-Dec-10 05:29N 39°13' W 076°35'0 0.0
2017-Dec-10 04:59N 39°13' W 076°35'0 0.0
2017-Dec-10 04:26N 39°13' W 076°35'0 0.0
2017-Dec-10 03:56N 39°13' W 076°35'0 0.0
2017-Dec-10 03:14N 39°13' W 076°35'0 0.0
2017-Dec-10 02:56N 39°13' W 076°35'0 0.0
2017-Dec-10 02:14N 39°13' W 076°35'0 0.0
2017-Dec-10 01:59N 39°13' W 076°35'0 0.0
2017-Dec-10 01:23N 39°13' W 076°35'0 0.0
2017-Dec-10 00:53N 39°13' W 076°35'0 0.0
2017-Dec-10 00:29N 39°13' W 076°35'0 0.0
2017-Dec-09 18:47N 39°13' W 076°35'0 0.0
2017-Dec-09 17:38N 39°13' W 076°35'0 0.0
2017-Dec-09 17:23N 39°13' W 076°35'0 0.0
2017-Dec-09 16:59N 39°13' W 076°35'0 0.0
2017-Dec-09 16:29N 39°13' W 076°35'0 0.0
2017-Dec-09 15:56N 39°13' W 076°35'0 0.0
2017-Dec-09 15:08N 39°13' W 076°35'0 0.0
2017-Dec-09 14:50N 39°13' W 076°35'0 0.0
2017-Dec-09 14:29N 39°13' W 076°35'0 0.0
2017-Dec-09 13:56N 39°13' W 076°35'0 0.0
2017-Dec-09 13:20N 39°13' W 076°35'0 0.0
2017-Dec-09 12:47N 39°13' W 076°35'0 0.0
2017-Dec-09 12:05N 39°13' W 076°35'0 0.0
2017-Dec-09 11:50N 39°13' W 076°35'0 0.0
2017-Dec-09 11:26N 39°13' W 076°35'0 0.0
2017-Dec-09 10:56N 39°13' W 076°35'0 0.0
2017-Dec-09 10:26N 39°13' W 076°35'0 0.0
2017-Dec-09 09:59N 39°13' W 076°35'0 0.0
2017-Dec-09 09:26N 39°13' W 076°35'0 0.0
2017-Dec-09 08:50N 39°13' W 076°35'0 0.0
2017-Dec-09 08:20N 39°13' W 076°35'0 0.0
2017-Dec-09 07:50N 39°13' W 076°35'0 0.0
2017-Dec-09 07:29N 39°13' W 076°35'0 0.0
2017-Dec-09 06:59N 39°13' W 076°35'0 0.0
2017-Dec-09 06:20N 39°13' W 076°35'0 0.0
2017-Dec-09 05:56N 39°13' W 076°35'0 0.0
2017-Dec-09 05:20N 39°13' W 076°35'0 0.0
2017-Dec-09 04:56N 39°13' W 076°35'0 0.0
2017-Dec-09 04:14N 39°13' W 076°35'0 0.0
2017-Dec-09 03:50N 39°13' W 076°35'0 0.0
2017-Dec-09 03:26N 39°13' W 076°35'0 0.2
2017-Dec-09 03:00N 39°13' W 076°35'2 3.9
2017-Dec-09 02:30N 39°13' W 076°32'4 8.4
2017-Dec-09 02:00N 39°11' W 076°27'711.7
2017-Dec-09 01:24N 39°05' W 076°24'  
2017-Dec-06 03:00N 37°06' W 072°54'13910.7 180 / 341019.010.8 16.012.4
2017-Dec-05 14:00N 37°18' W 070°00'14410.3 150 / 141031.010.8 17.015.3
2017-Dec-05 00:00N 37°36' W 067°00'3812.8 340 / 221028.010.8 14.012.2
2017-Dec-04 21:00N 37°42' W 066°12'7210.3 340 / 291025.010.8 17.013.5
2017-Dec-04 14:00N 37°54' W 064°42'51211.1 350 / 321020.010.8 16.014.3
2017-Dec-02 16:00N 39°42' W 054°00'25611.6 120 / 101015.010.8 17.011.5
2017-Dec-01 18:00N 40°24' W 048°30'   330 / 281014.0 5.4 12.010.1

Dump ship's entire track history